Latest Weather Observations for Mount Read

IDT60801

Issued at 10:02 pm EST Tuesday 27 September 2016 (issued every 30 minutes, with the page automatically refreshed every 10 minutes)

About weather observations | Map of weather stations | Latest weather observations for TAS | Other Formats
Station Details ID: 097085 Name: MOUNT READ Lat: -41.84 Lon: 145.54 Height: 1119.5 m
Data from the previous 72 hours. | See also: Recent months at Mount Read
Date/Time
EST
Temp
°C
App
Temp
°C
Dew
Point
°C
Rel
Hum
%
Delta-T
°C
Wind Press
QNH
hPa
Press
MSL
hPa
Rain since
9am
mm
Dir  Spd
km/h
Gust
km/h
Spd
kts
Gust
kts
27/10:00pm 1.9 -3.4 1.9 100 0.0 NNW 19 24 10 13 1007.2 1008.7 1.0
27/09:30pm 2.4 -2.8 2.4 100 0.0 N 19 24 10 13 1007.4 1008.9 0.4
27/09:00pm 2.3 -2.2 2.3 100 0.0 NNW 15 22 8 12 1007.5 1009.0 0.2
27/08:30pm 1.8 -4.5 1.8 100 0.0 NW 24 32 13 17 1007.7 1009.2 0.2
27/08:00pm 1.9 -3.6 1.9 100 0.0 NNW 20 35 11 19 1007.7 1009.2 0.2
27/07:30pm 2.6 -3.9 2.6 100 0.0 NW 26 39 14 21 1007.6 1009.1 0.2
27/07:00pm 3.0 -1.0 3.0 100 0.0 NW 13 28 7 15 1007.6 1009.1 0.2
27/06:30pm 3.1 -1.6 3.1 100 0.0 NW 17 26 9 14 1007.5 1009.0 0.2
27/06:00pm 3.4 -0.9 3.4 100 0.0 NW 15 28 8 15 1007.4 1008.9 0.0
27/05:30pm 3.6 -1.6 3.6 100 0.0 NW 20 32 11 17 1007.2 1008.7 0.0
27/05:00pm 3.9 -0.3 3.9 100 0.0 NNW 15 24 8 13 1007.1 1008.6 0.0
27/04:30pm 3.8 -2.1 3.8 100 0.0 NW 24 39 13 21 1006.9 1008.3 0.0
27/04:00pm 4.0 -1.1 4.0 100 0.0 NW 20 37 11 20 1006.6 1008.1 0.0
27/03:30pm 4.2 -1.6 4.2 100 0.0 NW 24 35 13 19 1006.5 1008.0 0.0
27/03:00pm 4.7 0.3 4.7 100 0.0 NW 17 32 9 17 1006.5 1008.0 0.0
27/02:30pm 5.6 1.7 5.5 99 0.0 NNW 15 22 8 12 1006.6 1008.1 0.0
27/02:00pm 5.3 1.7 5.2 99 0.0 NW 13 24 7 13 1006.6 1008.1 0.0
27/01:30pm 6.8 2.5 5.1 89 0.8 NNW 17 24 9 13 1006.7 1008.2 0.0
27/01:00pm 5.5 1.1 4.9 96 0.3 NW 17 22 9 12 1007.0 1008.4 0.0
27/12:30pm 6.4 2.4 4.9 90 0.7 NW 15 24 8 13 1007.1 1008.6 0.0
27/12:00pm 5.1 0.7 4.8 98 0.1 NNW 17 24 9 13 1007.0 1008.4 0.0
27/11:30am 5.6 1.5 4.1 90 0.7 N 15 22 8 12 1007.0 1008.4 0.0
27/11:00am 5.7 2.2 5.6 99 0.0 NNW 13 20 7 11 1007.2 1008.7 0.0
27/10:30am 5.4 1.9 5.4 100 0.0 N 13 19 7 10 1007.1 1008.6 0.0
27/10:00am 4.4 1.1 4.4 100 0.0 NNW 11 17 6 9 1007.0 1008.4 0.0
27/09:30am 3.6 0.1 3.6 100 0.0 NNW 11 15 6 8 1007.2 1008.7 0.0
27/09:00am 2.8 -1.2 2.8 100 0.0 NNW 13 17 7 9 1006.9 1008.3 7.8
27/08:30am 2.1 -2.0 2.1 100 0.0 N 13 19 7 10 1006.7 1008.2 7.8
27/08:00am 2.2 -1.5 2.2 100 0.0 N 11 13 6 7 1006.4 1007.9 7.8
27/07:30am 1.8 -2.4 1.8 100 0.0 N 13 15 7 8 1006.3 1007.8 7.8
27/07:00am 1.5 -2.3 1.5 100 0.0 N 11 15 6 8 1006.1 1007.5 7.8
27/06:30am 1.6 -2.2 1.6 100 0.0 N 11 15 6 8 1006.0 1007.4 7.8
27/06:00am 0.8 -3.2 0.8 100 0.0 N 11 13 6 7 1005.7 1007.2 7.8
27/05:30am 0.5 -3.9 0.5 100 0.0 N 13 17 7 9 1005.6 1007.1 7.8
27/05:00am 0.6 -3.8 0.6 100 0.0 N 13 17 7 9 1005.4 1006.8 7.8
27/04:30am 0.8 -3.5 0.8 100 0.0 N 13 17 7 9 1005.4 1006.8 7.6
27/04:00am 0.8 -3.9 0.8 100 0.0 N 15 17 8 9 1005.3 1006.7 7.6
27/03:30am 1.1 -4.3 1.1 100 0.0 N 19 20 10 11 1005.3 1006.7 7.6
27/03:00am 1.1 -3.9 1.1 100 0.0 N 17 22 9 12 1005.3 1006.7 7.6
27/02:30am 1.1 -4.3 1.1 100 0.0 N 19 22 10 12 1005.4 1006.8 7.6
27/02:00am 1.3 -4.1 1.3 100 0.0 N 19 20 10 11 1005.7 1007.2 7.6
27/01:30am 1.1 -4.3 1.1 100 0.0 N 19 20 10 11 1005.9 1007.3 7.6
27/01:00am 1.1 -3.9 1.1 100 0.0 NNE 17 19 9 10 1006.1 1007.5 7.6
27/12:30am 1.3 -3.3 1.3 100 0.0 N 15 17 8 9 1006.2 1007.6 7.6
27/12:00am 1.2 -3.5 1.2 100 0.0 NNE 15 20 8 11 1006.4 1007.9 7.6
 
Date/Time
EST
Temp
°C
App
Temp
°C
Dew
Point
°C
Rel
Hum
%
Delta-T
°C
Wind Press
QNH
hPa
Press
MSL
hPa
Rain since
9am
mm
Dir  Spd
km/h
Gust
km/h
Spd
kts
Gust
kts
26/11:30pm 1.3 -3.3 1.3 100 0.0 N 15 15 8 8 1006.5 1008.0 7.6
26/11:00pm 1.3 -3.7 1.3 100 0.0 N 17 20 9 11 1006.7 1008.2 7.6
26/10:30pm 1.1 -2.8 1.1 100 0.0 N 11 13 6 7 1007.1 1008.6 7.6
26/10:00pm 1.3 -2.6 1.3 100 0.0 NNE 11 13 6 7 1007.3 1008.8 7.6
26/09:30pm 1.3 -2.6 1.3 100 0.0 N 11 13 6 7 1007.4 1008.9 7.4
26/09:00pm 1.4 -2.1 1.4 100 0.0 N 9 11 5 6 1007.4 1008.9 7.4
26/08:30pm 1.4 -2.1 1.4 100 0.0 N 9 9 5 5 1007.4 1008.9 7.4
26/08:00pm 1.3 -2.6 1.3 100 0.0 NNE 11 13 6 7 1007.4 1008.9 7.4
26/07:30pm 1.6 -1.3 1.6 100 0.0 NE 6 9 3 5 1007.4 1008.9 7.4
26/07:00pm 1.6 -1.3 1.6 100 0.0 N 6 9 3 5 1007.2 1008.7 7.4
26/06:30pm 1.4 -2.5 1.4 100 0.0 NW 11 17 6 9 1007.1 1008.6 6.6
26/06:00pm 2.2 -1.5 2.2 100 0.0 NW 11 15 6 8 1007.0 1008.4 5.6
26/05:30pm 1.3 -2.6 1.3 100 0.0 NNW 11 17 6 9 1006.7 1008.2 4.8
26/05:00pm 2.9 0.1 2.9 100 0.0 NNE 7 15 4 8 1006.6 1008.1 2.4
26/04:30pm 3.7 1.0 3.7 100 0.0 NNW 7 15 4 8 1006.5 1008.0 2.0
26/04:00pm 3.9 1.2 3.9 100 0.0 NW 7 13 4 7 1006.5 1008.0 2.0
26/03:30pm 3.4 -0.1 3.4 100 0.0 NW 11 15 6 8 1006.5 1008.0 2.0
26/03:00pm 2.1 -2.0 2.1 100 0.0 NW 13 22 7 12 1006.6 1008.1 1.6
26/02:30pm 2.5 -2.3 2.5 100 0.0 NW 17 22 9 12 1006.6 1008.1 1.2
26/02:00pm 3.5 -0.8 3.5 100 0.0 N 15 30 8 16 1006.6 1008.1 0.4
26/01:30pm 4.4 1.1 4.4 100 0.0 NNW 11 17 6 9 1006.9 1008.3 0.4
26/01:00pm 2.8 -2.3 2.8 100 0.0 NW 19 35 10 19 1007.2 1008.7 0.4
26/12:30pm 4.5 0.8 4.5 100 0.0 N 13 20 7 11 1007.4 1008.9 0.2
26/12:00pm 3.4 -0.5 3.4 100 0.0 N 13 24 7 13 1007.6 1009.1 0.2
26/11:30am 3.3 -0.2 3.3 100 0.0 N 11 19 6 10 1007.9 1009.4 0.2
26/11:00am 2.3 -1.4 2.3 100 0.0 N 11 19 6 10 1008.1 1009.6 0.0
26/10:30am 2.3 -2.2 2.3 100 0.0 N 15 24 8 13 1008.2 1009.7 0.0
26/10:00am 2.3 -1.8 2.3 100 0.0 N 13 20 7 11 1008.3 1009.8 0.0
26/09:30am 2.3 -2.6 2.3 100 0.0 NNW 17 20 9 11 1008.4 1009.9 0.0
26/09:00am 2.2 -2.7 2.2 100 0.0 N 17 22 9 12 1008.3 1009.8 6.2
26/08:30am 1.3 -4.1 1.3 100 0.0 N 19 26 10 14 1008.2 1009.7 6.2
26/08:00am 0.8 -4.7 0.8 100 0.0 N 19 24 10 13 1008.3 1009.8 6.2
26/07:30am 0.2 -5.0 0.2 100 0.0 N 17 22 9 12 1008.3 1009.8 6.2
26/07:00am 0.1 -4.3 0.1 100 0.0 N 13 17 7 9 1008.2 1009.7 6.0
26/06:30am 0.0 -2.0 0.0 100 0.0 CALM 0 0 0 0 1008.2 1009.7 6.0
26/06:00am -0.1 -2.1 -0.1 100 0.0 CALM 0 0 0 0 1008.3 1009.8 6.0
26/05:30am -0.2 -2.2 -0.2 100 0.0 CALM 0 0 0 0 1008.1 1009.6 6.0
26/05:00am -0.3 -2.3 -0.3 100 0.0 CALM 0 0 0 0 1008.1 1009.6 6.0
26/04:30am -0.3 -2.3 -0.3 100 0.0 CALM 0 0 0 0 1008.1 1009.6 6.0
26/04:00am -0.3 -2.3 -0.3 100 0.0 CALM 0 0 0 0 1008.1 1009.6 6.0
26/03:30am -0.3 -2.3 -0.3 100 0.0 CALM 0 0 0 0 1008.1 1009.6 6.0
26/03:00am -0.2 -2.2 -0.2 100 0.0 CALM 0 0 0 0 1008.1 1009.6 6.0
26/02:30am 0.0 -2.0 0.0 100 0.0 CALM 0 0 0 0 1008.4 1009.9 6.0
26/02:00am 0.0 -4.1 0.0 100 0.0 WNW 11 17 6 9 1008.8 1010.3 6.0
26/01:30am -0.1 -4.6 -0.1 100 0.0 WNW 13 17 7 9 1009.0 1010.5 6.0
26/01:00am -0.3 -4.4 -0.3 100 0.0 WNW 11 19 6 10 1009.1 1010.6 6.0
26/12:30am -0.6 -4.4 -0.6 100 0.0 WNW 9 13 5 7 1009.1 1010.6 6.0
26/12:00am -0.3 -4.4 -0.3 100 0.0 WNW 11 19 6 10 1009.3 1010.8 6.0
 
Date/Time
EST
Temp
°C
App
Temp
°C
Dew
Point
°C
Rel
Hum
%
Delta-T
°C
Wind Press
QNH
hPa
Press
MSL
hPa
Rain since
9am
mm
Dir  Spd
km/h
Gust
km/h
Spd
kts
Gust
kts
25/11:30pm 0.3 -4.5 0.3 100 0.0 WNW 15 22 8 12 1009.3 1010.8 5.8
25/11:00pm 0.1 -4.0 0.1 100 0.0 WNW 11 20 6 11 1009.4 1011.0 5.8
25/10:30pm 0.0 -4.1 0.0 100 0.0 NW 11 24 6 13 1009.5 1011.1 5.8
25/10:00pm 0.0 -4.5 0.0 100 0.0 W 13 19 7 10 1009.5 1011.1 5.8
25/09:30pm -0.1 -4.9 -0.1 100 0.0 W 15 19 8 10 1009.3 1010.8 5.8
25/09:00pm 0.2 -4.6 0.2 100 0.0 W 15 24 8 13 1009.2 1010.7 5.8
25/08:30pm -0.3 -6.5 -0.3 100 0.0 WSW 22 26 12 14 1008.9 1010.4 5.8
25/08:00pm -0.5 -6.4 -0.5 100 0.0 WSW 20 26 11 14 1008.6 1010.2 5.8
25/07:30pm 0.1 -6.0 0.1 100 0.0 WSW 22 28 12 15 1008.4 1009.9 5.8
25/07:00pm 0.3 -6.2 0.3 100 0.0 WSW 24 30 13 16 1008.1 1009.6 5.8
25/06:30pm 0.3 -5.4 0.3 100 0.0 WSW 20 24 11 13 1007.9 1009.4 5.8
25/06:00pm 0.4 -5.7 0.4 100 0.0 WSW 22 30 12 16 1007.5 1009.0 5.8
25/05:30pm 0.7 -5.0 0.7 100 0.0 WSW 20 28 11 15 1007.2 1008.7 5.8
25/05:00pm 0.8 -5.2 0.8 100 0.0 WSW 22 30 12 16 1007.0 1008.4 5.8
25/04:30pm 1.0 -5.0 1.0 100 0.0 WSW 22 32 12 17 1006.9 1008.3 5.8
25/04:00pm 0.9 -6.6 0.9 100 0.0 WSW 30 39 16 21 1006.4 1007.9 5.8
25/03:30pm 1.5 -5.2 1.5 100 0.0 WSW 26 33 14 18 1006.3 1007.8 5.6
25/03:00pm 1.7 -5.7 1.7 100 0.0 SW 30 37 16 20 1006.0 1007.4 5.6
25/02:30pm 3.1 -2.6 3.1 100 0.0 WSW 22 32 12 17 1006.0 1007.4 5.6
25/02:00pm 2.1 -5.8 2.1 100 0.0 WSW 33 41 18 22 1005.6 1007.1 5.6
25/01:30pm 1.7 -7.0 1.7 100 0.0 SW 37 48 20 26 1005.2 1006.6 5.6
25/01:00pm 0.0 -9.0 0.0 100 0.0 SW 37 46 20 25 1005.1 1006.5 4.6
25/12:30pm 1.4 -7.4 1.4 100 0.0 WSW 37 48 20 26 1004.8 1006.3 4.2
25/12:09pm 0.2 -7.1 0.2 100 0.0 SW 28 48 15 26 1004.6 1006.0 3.0
25/12:00pm 1.7 -5.0 1.7 100 0.0 WSW 26 35 14 19 1004.8 1006.3 2.8
25/11:30am 1.7 -6.3 1.7 100 0.0 SW 33 41 18 22 1004.6 1006.0 2.8
25/11:00am 1.0 -7.5 1.0 100 0.0 SW 35 44 19 24 1004.3 1005.7 2.6
25/10:40am 0.5 -6.7 0.5 100 0.0 WSW 28 46 15 25 1004.3 1005.7 1.6
25/10:30am 1.9 -5.1 1.9 100 0.0 WSW 28 35 15 19 1004.2 1005.6 1.2
25/10:00am 0.4 -7.6 0.4 100 0.0 WSW 32 52 17 28 1004.0 1005.3 1.2
25/09:59am 0.5 -7.5 0.5 100 0.0 WSW 32 52 17 28 1004.0 1005.3 1.0
25/09:30am 1.8 -4.5 1.8 100 0.0 WSW 24 35 13 19 1003.8 1005.2 0.0
25/09:00am 0.7 -7.4 0.7 100 0.0 WSW 33 46 18 25 1003.5 1004.9 17.0
25/08:30am 0.3 -6.6 0.3 100 0.0 WSW 26 39 14 21 1003.4 1004.8 16.2
25/08:00am 1.0 -6.2 1.0 100 0.0 W 28 33 15 18 1003.1 1004.4 15.6
25/07:30am 1.1 -6.4 1.1 100 0.0 W 30 37 16 20 1002.8 1004.2 15.4
25/07:00am 0.3 -8.3 0.3 100 0.0 W 35 43 19 23 1002.4 1003.7 15.0
25/06:35am 0.0 -7.7 0.0 100 0.0 W 30 48 16 26 1002.2 1003.5 14.8
25/06:30am 0.8 -5.2 0.8 100 0.0 W 22 30 12 16 1002.4 1003.7 14.8
25/06:00am 0.9 -5.9 0.9 100 0.0 W 26 37 14 20 1002.2 1003.5 14.4
25/05:30am 1.2 -7.3 1.2 100 0.0 W 35 46 19 25 1001.8 1003.2 14.4
25/05:00am 1.5 -8.6 1.5 100 0.0 W 44 56 24 30 1001.4 1002.7 14.2
25/04:51am 1.8 -6.9 1.8 100 0.0 W 37 54 20 29 1001.3 1002.6 14.2
25/04:30am 1.9 -5.5 1.9 100 0.0 W 30 43 16 23 1001.5 1002.8 13.6
25/04:00am 1.8 -9.0 1.8 100 0.0 W 48 59 26 32 1000.8 1002.1 13.6
25/03:38am 2.3 -7.1 2.3 100 0.0 WNW 41 65 22 35 1000.3 1001.6 13.6
25/03:30am 3.3 -4.2 3.3 100 0.0 WNW 32 44 17 24 1000.8 1002.1 13.2
25/03:00am 3.8 -5.0 3.8 100 0.0 WNW 39 54 21 29 1000.4 1001.7 9.8
25/02:56am 4.0 -4.3 4.0 100 0.0 WNW 37 54 20 29 1000.5 1001.8 9.2
25/02:31am 4.3 -3.2 4.3 100 0.0 N 33 57 18 31 999.9 1001.2 5.4
25/02:30am 4.4 -3.1 4.4 100 0.0 N 33 50 18 27 999.9 1001.2 5.2
25/02:00am 4.5 -3.4 4.5 100 0.0 N 35 52 19 28 1000.1 1001.3 4.2
25/01:30am 4.7 -3.5 4.7 100 0.0 N 37 54 20 29 1000.2 1001.5 4.0
25/01:04am 4.8 -5.1 4.8 100 0.0 N 46 65 25 35 1000.1 1001.3 3.8
25/01:00am 4.9 -4.6 4.9 100 0.0 N 44 61 24 33 1000.2 1001.5 3.8
25/12:38am 4.9 -3.7 4.9 100 0.0 N 39 67 21 36 1000.4 1001.7 3.0
25/12:30am 4.9 -3.7 4.9 100 0.0 N 39 54 21 29 1000.5 1001.8 2.8
25/12:10am 4.8 -3.4 4.8 100 0.0 N 37 56 20 30 1000.6 1001.9 2.2
25/12:00am 4.8 -3.8 4.8 100 0.0 N 39 54 21 29 1000.7 1002.0 2.0
 
Date/Time
EST
Temp
°C
App
Temp
°C
Dew
Point
°C
Rel
Hum
%
Delta-T
°C
Wind Press
QNH
hPa
Press
MSL
hPa
Rain since
9am
mm
Dir  Spd
km/h
Gust
km/h
Spd
kts
Gust
kts
24/11:30pm 4.7 -4.7 4.7 100 0.0 N 43 57 23 31 1001.1 1002.4 1.4
24/11:00pm 4.6 -3.6 4.6 100 0.0 N 37 48 20 26 1001.6 1002.9 1.2
24/10:30pm 4.4 -4.2 4.4 100 0.0 N 39 52 21 28 1001.8 1003.2 0.8

Other Formats:

Comma delimited format used in spreadsheet applications
http://www.bom.gov.au/fwo/IDT60801/IDT60801.95952.axf

JavaScript Object Notation format (JSON) in row-major order
http://www.bom.gov.au/fwo/IDT60801/IDT60801.95952.json